Terminal Aerodrome Forecast
Issued by NWS

Home | Current Version | Previous Version | Text Only | Print | Product List | Glossary On
Versions: 1 2 3 4 5 6 7 8 9 10 11 12 13 14 15
000
FTPA31 PHFO 281739
TAFHJR
TAF
PHJR 281739Z 2818/2918 04004KT P6SM BKN060
     FM282000 13011KT P6SM SCT035 BKN050
     FM290400 VRB04KT P6SM SCT035 BKN050=

USA.gov is the U.S. government's official web portal to all federal, state and local government web resources and services.